Time;durP1;ratioP1;P1;durP2;ratioP2;P2;SDS_P1;SDS_P2;PMS_P1;PMS_P2;Temp;Humidity;BMP_temperature;BMP_pressure;BME280_temperature;BME280_humidity;BME280_pressure;Samples;Min_cycle;Max_cycle;Signal;HPM_P1;HPM_P2
2021/09/29 00:00:50;;;;;;;4.77;2.03;;;15.30;78.80;;;;;;5117367;28;20454;-70
2021/09/29 00:03:17;;;;;;;2.87;2.47;;;15.40;78.60;;;;;;5117265;28;20447;-70
2021/09/29 00:05:44;;;;;;;4.90;2.67;;;15.30;78.30;;;;;;5117082;28;20462;-70
2021/09/29 00:08:12;;;;;;;3.93;2.20;;;15.40;78.40;;;;;;5117048;28;20482;-70
2021/09/29 00:10:41;;;;;;;4.23;2.50;;;15.40;78.40;;;;;;5116858;28;20439;-70
2021/09/29 00:13:08;;;;;;;3.97;2.40;;;15.40;78.30;;;;;;5117120;27;20453;-70
2021/09/29 00:15:35;;;;;;;3.50;2.00;;;15.40;78.30;;;;;;5117076;28;20438;-70
2021/09/29 00:18:01;;;;;;;4.57;2.43;;;15.40;78.20;;;;;;5116950;28;20469;-70
2021/09/29 00:20:28;;;;;;;4.23;2.10;;;15.40;78.00;;;;;;5116972;27;20447;-70
2021/09/29 00:22:55;;;;;;;5.27;2.50;;;15.40;78.00;;;;;;5116672;28;20435;-71
2021/09/29 00:25:22;;;;;;;6.20;2.67;;;15.40;77.90;;;;;;5116929;28;20446;-70
2021/09/29 00:27:50;;;;;;;5.20;2.50;;;15.40;77.90;;;;;;5117531;28;20554;-71
2021/09/29 00:30:17;;;;;;;9.47;2.83;;;15.40;77.90;;;;;;5116813;27;20439;-70
2021/09/29 00:32:44;;;;;;;4.37;2.70;;;15.50;78.10;;;;;;5116799;28;20443;-70
2021/09/29 00:35:13;;;;;;;7.00;2.17;;;15.50;78.10;;;;;;5116390;28;20482;-70
2021/09/29 00:37:40;;;;;;;7.20;2.30;;;15.50;78.10;;;;;;5116602;27;20459;-70
2021/09/29 00:40:09;;;;;;;3.57;2.40;;;15.50;78.00;;;;;;5116665;28;20439;-70
2021/09/29 00:42:36;;;;;;;3.67;2.60;;;15.40;77.90;;;;;;5116519;28;20474;-70
2021/09/29 00:45:06;;;;;;;5.17;2.67;;;15.40;77.90;;;;;;5116543;27;20443;-70
2021/09/29 00:47:33;;;;;;;3.90;2.10;;;15.40;77.90;;;;;;5116008;28;20976;-71
2021/09/29 00:50:00;;;;;;;9.33;2.87;;;15.40;77.90;;;;;;5116375;28;20442;-70
2021/09/29 00:52:27;;;;;;;4.50;2.50;;;15.40;77.80;;;;;;5116399;28;20453;-70
2021/09/29 00:54:55;;;;;;;2.60;1.90;;;15.40;77.70;;;;;;5115992;27;20936;-70
2021/09/29 00:57:22;;;;;;;3.30;2.23;;;15.40;77.40;;;;;;5116189;28;20470;-70
2021/09/29 00:59:48;;;;;;;3.03;2.50;;;15.30;77.00;;;;;;5116325;28;20439;-70
2021/09/29 01:02:17;;;;;;;3.03;2.00;;;15.30;76.90;;;;;;5116796;28;20512;-70
2021/09/29 01:04:43;;;;;;;6.07;2.20;;;15.30;76.80;;;;;;5116025;28;20451;-70
2021/09/29 01:07:17;;;;;;;5.00;2.33;;;15.20;76.80;;;;;;5115474;28;20486;-70
2021/09/29 01:09:52;;;;;;;5.20;2.40;;;15.20;77.10;;;;;;5115807;28;20815;-70
2021/09/29 01:12:26;;;;;;;6.90;2.10;;;15.20;77.10;;;;;;5115837;28;20896;-70
2021/09/29 01:14:57;;;;;;;5.33;2.47;;;15.10;77.10;;;;;;5116049;28;20435;-70
2021/09/29 01:17:25;;;;;;;4.00;2.23;;;15.10;77.10;;;;;;5115521;28;20466;-70
2021/09/29 01:20:03;;;;;;;6.07;2.60;;;15.10;77.20;;;;;;5115887;28;20423;-71
2021/09/29 01:22:56;;;;;;;5.80;2.77;;;15.10;77.50;;;;;;5115716;28;20423;-70
2021/09/29 01:25:29;;;;;;;3.13;2.00;;;15.00;77.60;;;;;;5115651;27;20443;-70
2021/09/29 01:27:58;;;;;;;3.27;2.00;;;15.10;78.10;;;;;;5115566;27;20510;-70
2021/09/29 01:30:26;;;;;;;6.40;2.30;;;15.00;78.00;;;;;;5115621;28;20443;-70
2021/09/29 01:32:55;;;;;;;11.63;3.63;;;15.00;78.00;;;;;;5115343;28;20936;-70
2021/09/29 01:35:22;;;;;;;7.87;2.20;;;15.00;78.00;;;;;;5115504;28;20459;-70
2021/09/29 01:37:49;;;;;;;4.90;2.90;;;15.00;78.50;;;;;;5115497;28;20822;-70
2021/09/29 01:40:16;;;;;;;4.73;2.50;;;15.00;79.60;;;;;;5115444;28;20442;-70
2021/09/29 01:42:43;;;;;;;7.33;2.30;;;14.90;79.00;;;;;;5115422;28;20435;-70
2021/09/29 01:45:11;;;;;;;6.60;2.17;;;14.90;79.10;;;;;;5115298;28;20442;-70
2021/09/29 01:47:39;;;;;;;8.40;2.00;;;14.80;79.30;;;;;;5115105;28;20468;-70
2021/09/29 01:50:09;;;;;;;3.50;1.90;;;14.80;79.40;;;;;;5115261;28;20862;-70
2021/09/29 01:52:42;;;;;;;3.73;1.90;;;14.70;79.60;;;;;;5115260;28;20426;-70
2021/09/29 01:55:11;;;;;;;8.57;2.70;;;14.70;79.80;;;;;;5115173;28;20427;-70
2021/09/29 01:57:38;;;;;;;4.57;2.57;;;14.60;80.20;;;;;;5114662;28;20478;-70
2021/09/29 02:00:07;;;;;;;3.10;1.90;;;14.50;80.60;;;;;;5115081;28;20455;-70
2021/09/29 02:02:35;;;;;;;7.83;2.60;;;14.40;80.90;;;;;;5114937;28;20442;-70
2021/09/29 02:05:02;;;;;;;3.17;2.13;;;14.40;81.40;;;;;;5114758;27;20427;-70
2021/09/29 02:07:29;;;;;;;7.03;2.10;;;14.40;81.50;;;;;;5114553;28;20867;-70
2021/09/29 02:09:55;;;;;;;4.77;2.00;;;14.40;81.50;;;;;;5114858;28;20442;-70
2021/09/29 02:12:23;;;;;;;7.17;2.67;;;14.40;81.70;;;;;;5114600;28;20936;-70
2021/09/29 02:14:49;;;;;;;3.90;2.30;;;14.30;81.90;;;;;;5114921;28;20450;-70
2021/09/29 02:17:17;;;;;;;4.50;2.17;;;14.30;82.00;;;;;;5114289;28;20467;-70
2021/09/29 02:19:46;;;;;;;5.13;2.50;;;14.30;82.20;;;;;;5114752;28;20439;-70
2021/09/29 02:22:15;;;;;;;3.90;2.13;;;14.20;82.10;;;;;;5114849;28;20438;-70
2021/09/29 02:24:41;;;;;;;5.07;1.83;;;14.20;82.40;;;;;;5114527;28;20937;-70
2021/09/29 02:27:08;;;;;;;7.40;2.70;;;14.20;82.80;;;;;;5114603;28;20470;-70
2021/09/29 02:29:35;;;;;;;3.77;2.40;;;14.20;82.90;;;;;;5114532;28;20474;-70
2021/09/29 02:32:02;;;;;;;5.93;2.60;;;14.20;82.80;;;;;;5114585;28;20446;-70
2021/09/29 02:34:28;;;;;;;6.07;2.60;;;14.20;82.40;;;;;;5114479;27;20453;-70
2021/09/29 02:36:56;;;;;;;6.30;2.60;;;14.20;82.80;;;;;;5114004;28;20459;-70
2021/09/29 02:39:23;;;;;;;3.13;2.90;;;14.20;82.70;;;;;;5114418;28;20423;-70
2021/09/29 02:41:50;;;;;;;5.57;2.63;;;14.20;82.70;;;;;;5114285;28;20811;-70
2021/09/29 02:44:17;;;;;;;4.50;2.60;;;14.20;82.50;;;;;;5114312;28;20443;-70
2021/09/29 02:46:44;;;;;;;7.37;2.77;;;14.20;82.70;;;;;;5114184;28;20466;-70
2021/09/29 02:49:11;;;;;;;8.97;2.40;;;14.20;82.40;;;;;;5114106;28;20563;-70
2021/09/29 02:51:38;;;;;;;5.10;2.70;;;14.10;82.80;;;;;;5114183;28;20450;-70
2021/09/29 02:54:06;;;;;;;3.50;2.60;;;14.10;82.90;;;;;;5113943;28;20431;-70
2021/09/29 02:56:41;;;;;;;8.40;3.07;;;14.00;83.10;;;;;;5114080;28;20469;-70
2021/09/29 02:59:09;;;;;;;8.53;2.67;;;14.00;83.40;;;;;;5113684;28;20430;-70
2021/09/29 03:01:37;;;;;;;4.97;2.60;;;14.00;83.20;;;;;;5114032;28;20454;-70
2021/09/29 03:04:03;;;;;;;6.63;3.03;;;13.90;83.40;;;;;;5114089;28;20442;-70
2021/09/29 03:06:30;;;;;;;5.50;2.83;;;13.90;83.60;;;;;;5113522;28;20486;-70
2021/09/29 03:08:57;;;;;;;6.80;2.80;;;13.90;83.40;;;;;;5113975;28;20479;-70
2021/09/29 03:11:25;;;;;;;4.53;2.30;;;14.00;83.80;;;;;;5113998;28;20807;-70
2021/09/29 03:13:52;;;;;;;6.07;3.90;;;14.00;83.60;;;;;;5114421;28;20462;-70
2021/09/29 03:16:19;;;;;;;5.60;2.53;;;13.90;83.40;;;;;;5113975;28;20435;-71
2021/09/29 03:18:47;;;;;;;3.27;2.73;;;14.00;83.80;;;;;;5113991;28;20436;-70
2021/09/29 03:21:14;;;;;;;6.87;2.60;;;13.90;83.10;;;;;;5113540;28;20807;-70
2021/09/29 03:23:41;;;;;;;7.70;4.07;;;13.90;83.60;;;;;;5114006;28;20443;-70
2021/09/29 03:26:08;;;;;;;4.83;3.00;;;13.90;83.60;;;;;;5114092;28;20814;-70
2021/09/29 03:28:37;;;;;;;6.10;2.83;;;14.00;83.70;;;;;;5116002;28;20478;-70
2021/09/29 03:31:03;;;;;;;5.97;2.80;;;14.00;83.50;;;;;;5118059;28;20475;-70
2021/09/29 03:33:30;;;;;;;8.03;3.27;;;14.00;83.20;;;;;;5117884;28;20486;-70
2021/09/29 03:35:57;;;;;;;7.20;2.80;;;14.00;83.30;;;;;;5117944;28;20443;-70
2021/09/29 03:38:24;;;;;;;3.93;2.30;;;14.00;83.30;;;;;;5117760;28;20462;-70
2021/09/29 03:40:50;;;;;;;6.67;3.20;;;14.00;83.20;;;;;;5117448;28;20790;-70
2021/09/29 03:43:19;;;;;;;4.13;2.93;;;14.10;83.20;;;;;;5117872;28;20439;-70
2021/09/29 03:45:47;;;;;;;8.97;3.40;;;14.10;82.90;;;;;;5117788;28;20447;-70
2021/09/29 03:48:14;;;;;;;4.43;2.90;;;14.10;82.80;;;;;;5117563;28;20469;-70
2021/09/29 03:50:40;;;;;;;7.27;3.40;;;14.10;83.00;;;;;;5117581;27;20446;-70
2021/09/29 03:53:07;;;;;;;5.07;2.77;;;14.00;82.60;;;;;;5117564;28;20474;-71
2021/09/29 03:55:34;;;;;;;7.67;3.10;;;14.00;82.80;;;;;;5117489;28;20442;-70
2021/09/29 03:58:01;;;;;;;6.73;3.23;;;13.90;83.10;;;;;;5117586;28;20486;-70
2021/09/29 04:00:28;;;;;;;5.80;3.17;;;13.90;83.00;;;;;;5117385;28;20552;-70
2021/09/29 04:02:56;;;;;;;7.17;3.73;;;13.90;83.10;;;;;;5117377;28;20443;-70
2021/09/29 04:05:23;;;;;;;4.80;3.07;;;13.90;83.40;;;;;;5117183;28;20500;-70
2021/09/29 04:07:49;;;;;;;5.53;2.90;;;13.90;83.10;;;;;;5117169;28;20545;-70
2021/09/29 04:10:17;;;;;;;5.07;3.40;;;13.90;83.00;;;;;;5116836;28;20992;-70
2021/09/29 04:12:44;;;;;;;5.30;3.30;;;13.80;82.90;;;;;;5116885;28;20458;-70
2021/09/29 04:15:11;;;;;;;4.63;3.00;;;13.80;83.20;;;;;;5117121;28;20447;-70
2021/09/29 04:17:38;;;;;;;4.10;3.17;;;13.80;83.20;;;;;;5116890;28;20469;-70
2021/09/29 04:20:08;;;;;;;6.23;3.30;;;13.80;83.20;;;;;;5117043;28;20435;-70
2021/09/29 04:22:35;;;;;;;3.43;2.80;;;13.80;83.00;;;;;;5117553;28;20431;-70
2021/09/29 04:25:02;;;;;;;3.80;3.07;;;13.80;82.80;;;;;;5116590;27;20484;-70
2021/09/29 04:27:28;;;;;;;4.93;3.20;;;13.70;82.80;;;;;;5116518;28;20830;-70
2021/09/29 04:29:55;;;;;;;4.20;3.00;;;13.70;83.10;;;;;;5116814;28;20475;-70
2021/09/29 04:32:22;;;;;;;4.87;3.00;;;13.60;83.50;;;;;;5116798;28;20423;-70
2021/09/29 04:34:49;;;;;;;4.70;3.13;;;13.60;83.60;;;;;;5116821;28;20450;-70
2021/09/29 04:37:17;;;;;;;5.20;2.80;;;13.60;84.50;;;;;;5116395;28;20968;-70
2021/09/29 04:39:43;;;;;;;4.37;3.03;;;13.60;84.80;;;;;;5116316;28;20450;-70
2021/09/29 04:42:10;;;;;;;5.00;3.30;;;13.60;83.60;;;;;;5116642;28;20842;-70
2021/09/29 04:44:37;;;;;;;7.97;3.43;;;13.60;84.20;;;;;;5116484;28;20442;-70
2021/09/29 04:47:05;;;;;;;5.20;3.60;;;13.60;84.40;;;;;;5116083;27;20841;-70
2021/09/29 04:49:32;;;;;;;6.70;4.13;;;13.60;84.20;;;;;;5116325;28;20481;-70
2021/09/29 04:51:59;;;;;;;4.43;2.90;;;13.60;84.40;;;;;;5117017;28;20451;-73
2021/09/29 04:54:27;;;;;;;5.70;3.20;;;13.60;84.30;;;;;;5116534;28;20453;-73
2021/09/29 04:56:53;;;;;;;6.97;3.60;;;13.60;84.50;;;;;;5116606;28;20827;-73
2021/09/29 04:59:20;;;;;;;4.83;3.47;;;13.70;84.40;;;;;;5116085;28;20442;-73
2021/09/29 05:01:47;;;;;;;7.07;3.80;;;13.70;84.20;;;;;;5116343;28;20446;-73
2021/09/29 05:04:15;;;;;;;7.13;3.70;;;13.60;84.30;;;;;;5115925;28;20945;-73
2021/09/29 05:06:42;;;;;;;4.77;3.50;;;13.60;84.40;;;;;;5115948;28;20479;-73
2021/09/29 05:09:09;;;;;;;7.17;3.47;;;13.60;84.20;;;;;;5116182;28;20891;-73
2021/09/29 05:11:41;;;;;;;7.50;3.37;;;13.50;84.50;;;;;;5116050;28;20920;-73
2021/09/29 05:14:08;;;;;;;7.07;4.53;;;13.50;84.70;;;;;;5116148;28;20431;-74
2021/09/29 05:16:35;;;;;;;9.90;3.80;;;13.60;85.10;;;;;;5116001;28;20463;-73
2021/09/29 05:19:03;;;;;;;3.70;3.27;;;13.60;84.70;;;;;;5115980;28;20435;-73
2021/09/29 05:21:30;;;;;;;7.87;4.03;;;13.70;84.90;;;;;;5115607;28;20451;-73
2021/09/29 05:23:57;;;;;;;7.83;3.27;;;13.70;84.70;;;;;;5115583;28;20810;-73
2021/09/29 05:26:24;;;;;;;4.30;2.90;;;13.70;84.90;;;;;;5115833;28;20472;-73
2021/09/29 05:28:53;;;;;;;8.40;3.30;;;13.80;84.70;;;;;;5115621;28;20442;-73
2021/09/29 05:31:19;;;;;;;4.97;3.53;;;13.80;84.60;;;;;;5115300;28;20451;-73
2021/09/29 05:33:47;;;;;;;10.00;4.20;;;13.80;84.60;;;;;;5115579;28;20799;-73
2021/09/29 05:36:13;;;;;;;13.37;4.03;;;13.80;84.60;;;;;;5115513;28;20438;-72
2021/09/29 05:38:40;;;;;;;9.90;3.63;;;13.80;85.40;;;;;;5115252;27;20434;-73
2021/09/29 05:41:07;;;;;;;6.00;3.53;;;13.80;84.90;;;;;;5115470;28;20454;-73
2021/09/29 05:43:34;;;;;;;12.30;5.10;;;13.80;84.90;;;;;;5116081;28;20439;-72
2021/09/29 05:46:02;;;;;;;7.43;3.97;;;13.80;85.40;;;;;;5115445;28;20453;-71
2021/09/29 05:48:29;;;;;;;5.07;3.27;;;13.80;86.10;;;;;;5115381;27;20474;-71
2021/09/29 05:50:56;;;;;;;6.50;3.87;;;13.80;87.10;;;;;;5114384;28;20490;-71
2021/09/29 05:53:23;;;;;;;7.07;4.10;;;13.90;87.70;;;;;;5115266;28;20442;-71
2021/09/29 05:55:50;;;;;;;6.53;3.87;;;13.90;88.10;;;;;;5115404;28;20443;-71
2021/09/29 05:58:17;;;;;;;9.60;5.13;;;14.00;88.30;;;;;;5115754;28;20477;-70
2021/09/29 06:00:44;;;;;;;12.90;5.70;;;14.10;88.90;;;;;;5115219;28;20442;-70
2021/09/29 06:03:12;;;;;;;10.23;4.73;;;14.10;89.00;;;;;;5115191;28;20803;-71
2021/09/29 06:05:38;;;;;;;8.93;3.70;;;14.10;89.30;;;;;;5114924;28;20450;-71
2021/09/29 06:08:06;;;;;;;9.47;4.47;;;14.10;89.30;;;;;;5115006;28;20822;-71
2021/09/29 06:10:32;;;;;;;5.73;3.50;;;14.00;89.70;;;;;;5114833;28;20479;-71
2021/09/29 06:12:59;;;;;;;8.77;4.17;;;14.10;90.00;;;;;;5115077;28;20447;-70
2021/09/29 06:15:28;;;;;;;6.70;4.20;;;14.10;90.20;;;;;;5114801;28;20525;-70
2021/09/29 06:17:57;;;;;;;14.43;4.70;;;14.10;90.20;;;;;;5114663;28;20471;-70
2021/09/29 06:20:27;;;;;;;6.13;4.33;;;14.00;90.20;;;;;;5114471;28;20423;-70
2021/09/29 06:22:54;;;;;;;12.77;4.27;;;14.00;90.50;;;;;;5114655;28;20435;-71
2021/09/29 06:25:21;;;;;;;7.80;3.90;;;14.00;90.70;;;;;;5114648;28;20443;-71
2021/09/29 06:27:48;;;;;;;6.63;4.27;;;14.00;90.70;;;;;;5114326;28;20463;-71
2021/09/29 06:30:15;;;;;;;9.13;4.50;;;14.00;90.80;;;;;;5114146;28;21014;-71
2021/09/29 06:32:42;;;;;;;7.90;4.00;;;14.10;90.90;;;;;;5114475;28;20446;-71
2021/09/29 06:35:09;;;;;;;6.70;3.80;;;14.10;91.00;;;;;;5114595;28;20427;-71
2021/09/29 06:37:42;;;;;;;8.13;4.37;;;14.10;90.80;;;;;;5114441;28;20875;-72
2021/09/29 06:40:10;;;;;;;8.37;4.03;;;14.10;90.70;;;;;;5114489;28;20439;-72
2021/09/29 06:42:37;;;;;;;6.00;3.60;;;14.00;90.80;;;;;;5114356;28;20443;-72
2021/09/29 06:45:05;;;;;;;3.70;3.20;;;14.00;90.80;;;;;;5114147;28;20912;-72
2021/09/29 06:47:32;;;;;;;7.30;4.07;;;14.00;90.80;;;;;;5114436;28;20463;-72
2021/09/29 06:49:58;;;;;;;5.07;3.80;;;14.00;90.80;;;;;;5114314;27;20476;-72
2021/09/29 06:52:25;;;;;;;7.00;3.97;;;14.00;90.80;;;;;;5114303;28;20790;-72
2021/09/29 06:54:53;;;;;;;7.80;3.93;;;14.10;91.00;;;;;;5114171;28;20443;-73
2021/09/29 06:57:20;;;;;;;6.97;3.80;;;14.10;91.00;;;;;;5114055;28;20459;-73
2021/09/29 06:59:47;;;;;;;7.80;3.20;;;14.10;91.00;;;;;;5114211;28;20500;-73
2021/09/29 07:02:14;;;;;;;3.57;3.00;;;14.10;91.00;;;;;;5113914;28;20457;-73
2021/09/29 07:04:40;;;;;;;6.30;3.73;;;14.20;91.00;;;;;;5114120;28;20427;-73
2021/09/29 07:07:07;;;;;;;5.80;3.40;;;14.20;91.20;;;;;;5113871;28;20483;-72
2021/09/29 07:09:34;;;;;;;5.17;3.70;;;14.20;90.90;;;;;;5113995;28;20482;-72
2021/09/29 07:12:02;;;;;;;7.27;3.50;;;14.10;91.00;;;;;;5113988;28;20446;-72
2021/09/29 07:14:29;;;;;;;4.43;3.57;;;14.10;91.20;;;;;;5113994;28;20435;-72
2021/09/29 07:16:56;;;;;;;10.20;3.60;;;14.10;91.10;;;;;;5113930;28;20467;-72
2021/09/29 07:19:23;;;;;;;4.10;3.17;;;14.20;91.00;;;;;;5113864;28;20481;-72
2021/09/29 07:21:49;;;;;;;3.90;3.50;;;14.20;90.80;;;;;;5113926;28;20451;-72
2021/09/29 07:24:16;;;;;;;7.23;2.97;;;14.30;91.10;;;;;;5114030;28;20443;-71
2021/09/29 07:26:43;;;;;;;5.77;3.00;;;14.40;89.10;;;;;;5113951;28;20470;-71
2021/09/29 07:29:11;;;;;;;4.37;2.50;;;14.50;89.40;;;;;;5113919;28;20469;-71
2021/09/29 07:31:38;;;;;;;4.83;2.50;;;14.60;89.80;;;;;;5114051;28;20423;-69
2021/09/29 07:34:06;;;;;;;4.67;3.00;;;14.70;89.60;;;;;;5113784;28;20431;-70
2021/09/29 07:36:33;;;;;;;6.53;2.93;;;14.70;90.20;;;;;;5113850;28;20467;-70
2021/09/29 07:39:00;;;;;;;5.53;2.83;;;14.60;90.50;;;;;;5113965;28;20442;-70
2021/09/29 07:41:27;;;;;;;7.60;2.47;;;14.70;91.00;;;;;;5113927;28;20437;-70
2021/09/29 07:43:53;;;;;;;4.00;2.17;;;14.70;90.80;;;;;;5113537;28;20442;-70
2021/09/29 07:46:22;;;;;;;5.60;1.80;;;14.70;90.70;;;;;;5113860;28;20466;-70
2021/09/29 07:48:48;;;;;;;4.00;1.67;;;14.70;90.80;;;;;;5113814;28;20449;-71
2021/09/29 07:51:15;;;;;;;8.50;2.07;;;14.70;90.70;;;;;;5113682;28;20470;-71
2021/09/29 07:53:42;;;;;;;4.13;2.10;;;14.70;90.80;;;;;;5113733;28;20514;-70
2021/09/29 07:56:11;;;;;;;3.77;1.90;;;14.80;91.20;;;;;;5113852;28;20431;-70
2021/09/29 07:58:37;;;;;;;6.60;2.27;;;14.80;91.30;;;;;;5113352;28;20431;-70
2021/09/29 08:01:04;;;;;;;5.50;2.33;;;14.80;91.50;;;;;;5113321;28;20915;-70
2021/09/29 08:03:32;;;;;;;5.00;2.13;;;14.80;91.60;;;;;;5113430;28;20422;-70
2021/09/29 08:06:02;;;;;;;3.50;2.23;;;14.80;91.70;;;;;;5113669;28;20462;-71
2021/09/29 08:08:28;;;;;;;5.53;2.27;;;14.80;91.80;;;;;;5113697;28;20833;-71
2021/09/29 08:10:56;;;;;;;2.33;2.13;;;14.90;92.00;;;;;;5113388;28;20478;-71
2021/09/29 08:13:23;;;;;;;2.33;1.80;;;14.90;91.90;;;;;;5113311;28;20944;-71
2021/09/29 08:15:50;;;;;;;4.20;2.13;;;15.00;91.60;;;;;;5117394;28;20447;-71
2021/09/29 08:18:16;;;;;;;3.70;1.93;;;15.00;91.50;;;;;;5117227;28;20827;-71
2021/09/29 08:20:45;;;;;;;7.97;2.57;;;14.90;91.30;;;;;;5117275;28;20428;-70
2021/09/29 08:23:15;;;;;;;3.50;1.90;;;14.90;91.70;;;;;;5117038;28;20446;-70
2021/09/29 08:28:34;;;;;;;4.10;2.07;;;15.00;92.00;;;;;;5117300;28;20461;-71
2021/09/29 08:31:05;;;;;;;3.03;1.80;;;15.00;91.90;;;;;;5116959;28;20459;-71
2021/09/29 08:33:44;;;;;;;1.90;1.40;;;15.10;92.00;;;;;;5116625;27;20946;-71
2021/09/29 08:36:21;;;;;;;2.70;1.60;;;15.10;91.70;;;;;;5116906;28;20427;-71
2021/09/29 08:38:51;;;;;;;6.73;2.20;;;15.30;91.70;;;;;;5117099;28;20445;-70
2021/09/29 08:41:27;;;;;;;2.70;1.80;;;15.40;91.60;;;;;;5116952;28;20427;-70
2021/09/29 08:43:58;;;;;;;4.63;1.57;;;15.40;91.10;;;;;;5117020;27;20430;-70
2021/09/29 08:46:29;;;;;;;4.40;1.40;;;15.50;91.20;;;;;;5116821;28;20441;-71
2021/09/29 08:49:02;;;;;;;2.33;1.57;;;15.70;91.30;;;;;;5120328;28;20446;-72
2021/09/29 08:51:54;;;;;;;6.20;3.43;;;15.80;91.10;;;;;;5122292;28;20964;-71
2021/09/29 08:54:43;;;;;;;1.23;1.13;;;16.10;91.20;;;;;;5122479;28;20427;-71
2021/09/29 08:57:26;;;;;;;2.20;1.33;;;16.20;90.30;;;;;;5121943;28;20470;-72
2021/09/29 09:16:31;;;;;;;2.80;1.37;;;15.20;92.10;;;;;;5117687;28;20884;-71
2021/09/29 09:18:58;;;;;;;3.03;1.63;;;15.20;92.30;;;;;;5117916;28;20435;-70
2021/09/29 09:21:27;;;;;;;2.00;1.00;;;15.10;92.40;;;;;;5117371;28;20439;-71
2021/09/29 09:23:58;;;;;;;2.73;1.10;;;15.10;92.10;;;;;;5117035;28;20454;-71
2021/09/29 09:26:27;;;;;;;0.80;0.80;;;14.90;91.40;;;;;;5117412;28;20431;-72
2021/09/29 09:29:05;;;;;;;2.40;0.83;;;14.80;91.20;;;;;;5116974;28;20789;-72
2021/09/29 09:31:32;;;;;;;2.43;1.00;;;14.70;90.80;;;;;;5116941;28;20470;-72
2021/09/29 09:34:02;;;;;;;2.83;1.20;;;14.60;91.70;;;;;;5117039;28;20427;-71
2021/09/29 09:36:35;;;;;;;0.87;0.80;;;14.60;92.10;;;;;;5117008;28;20465;-70
2021/09/29 09:39:06;;;;;;;1.47;0.90;;;14.60;92.30;;;;;;5116534;28;20438;-70
2021/09/29 09:41:33;;;;;;;2.07;0.80;;;14.50;92.00;;;;;;5116746;28;20459;-70
2021/09/29 09:44:02;;;;;;;0.97;0.77;;;14.50;91.80;;;;;;5116556;28;20447;-70
2021/09/29 09:46:29;;;;;;;2.40;0.80;;;14.40;91.90;;;;;;5116638;28;20427;-70
2021/09/29 09:49:01;;;;;;;2.77;1.20;;;14.30;92.40;;;;;;5116377;28;20482;-71
2021/09/29 09:51:28;;;;;;;1.60;0.80;;;14.40;92.60;;;;;;5116304;28;20855;-70
2021/09/29 09:53:56;;;;;;;2.30;1.00;;;14.40;92.60;;;;;;5116247;28;20945;-70
2021/09/29 09:56:26;;;;;;;1.77;0.87;;;14.40;92.20;;;;;;5116677;28;20446;-70
2021/09/29 09:58:54;;;;;;;0.80;0.70;;;14.40;92.00;;;;;;5116590;28;20485;-70
2021/09/29 10:01:22;;;;;;;0.93;0.83;;;14.30;92.00;;;;;;5116036;28;20477;-70
2021/09/29 10:03:50;;;;;;;1.10;1.00;;;14.30;92.00;;;;;;5116112;28;20442;-70
2021/09/29 10:06:19;;;;;;;1.40;0.70;;;14.40;92.20;;;;;;5115636;28;20473;-70
2021/09/29 10:08:50;;;;;;;0.77;0.63;;;14.40;91.20;;;;;;5116397;28;20500;-71
2021/09/29 10:11:20;;;;;;;0.80;0.60;;;14.40;91.40;;;;;;5116075;28;20473;-71
2021/09/29 10:27:43;;;;;;;0.80;0.50;;;14.90;89.50;;;;;;5115534;28;20438;-72
2021/09/29 10:30:13;;;;;;;1.20;0.83;;;15.00;86.70;;;;;;5115796;28;20454;-72
2021/09/29 10:32:43;;;;;;;0.73;0.60;;;15.00;87.70;;;;;;5115531;28;21011;-73
2021/09/29 10:35:25;;;;;;;0.73;0.63;;;15.00;85.90;;;;;;5115500;28;20427;-73
2021/09/29 10:38:01;;;;;;;1.00;0.53;;;15.10;85.90;;;;;;5115708;28;20466;-73
2021/09/29 10:40:39;;;;;;;4.10;0.93;;;15.10;85.80;;;;;;5115705;28;20476;-73
2021/09/29 10:43:17;;;;;;;1.60;0.53;;;15.00;86.90;;;;;;5116186;28;20427;-73
2021/09/29 10:45:55;;;;;;;1.90;0.80;;;14.90;86.30;;;;;;5115906;28;20438;-73
2021/09/29 10:48:42;;;;;;;2.83;1.10;;;14.80;87.70;;;;;;5116109;28;20466;-73
2021/09/29 10:51:24;;;;;;;1.13;0.40;;;14.90;86.30;;;;;;5115606;28;20458;-74
2021/09/29 11:28:00;;;;;;;1.60;1.40;;;16.10;82.50;;;;;;5115212;28;20434;-74
2021/09/29 11:30:27;;;;;;;2.50;2.30;;;16.40;81.10;;;;;;5114836;28;20952;-73
2021/09/29 11:32:57;;;;;;;2.73;1.90;;;16.90;80.00;;;;;;5115138;28;20446;-73
2021/09/29 11:35:37;;;;;;;2.53;2.33;;;17.10;78.70;;;;;;5115442;28;20445;-73
2021/09/29 11:49:35;;;;;;;2.37;2.20;;;17.10;75.10;;;;;;5116386;28;20536;-74
2021/09/29 12:08:43;;;;;;;2.20;1.60;;;17.40;73.20;;;;;;5118513;28;20441;-74
2021/09/29 12:11:13;;;;;;;2.50;1.47;;;17.90;70.50;;;;;;5118621;28;20467;-74
2021/09/29 12:13:45;;;;;;;1.70;1.60;;;18.30;69.50;;;;;;5118637;28;20492;-74
2021/09/29 12:16:12;;;;;;;2.90;1.33;;;18.40;66.40;;;;;;5118504;28;20442;-74
2021/09/29 12:18:39;;;;;;;2.57;1.10;;;18.50;65.50;;;;;;5118398;28;20470;-73
2021/09/29 12:21:06;;;;;;;2.13;1.20;;;19.20;60.00;;;;;;5117805;28;20968;-74
2021/09/29 12:23:33;;;;;;;3.77;1.10;;;19.50;59.30;;;;;;5118378;28;20439;-74
2021/09/29 12:26:26;;;;;;;2.27;1.13;;;19.10;58.70;;;;;;5118282;28;20530;-74
2021/09/29 12:29:10;;;;;;;1.53;1.37;;;18.80;58.40;;;;;;5118072;28;20427;-74
2021/09/29 12:32:00;;;;;;;2.20;1.50;;;18.70;59.80;;;;;;5117857;28;21063;-74
2021/09/29 12:34:46;;;;;;;5.03;1.50;;;19.40;58.30;;;;;;5118078;28;20449;-74
2021/09/29 12:37:15;;;;;;;1.87;1.10;;;19.60;57.60;;;;;;5117785;28;20553;-74
2021/09/29 12:39:43;;;;;;;2.77;1.00;;;19.80;57.10;;;;;;5117865;28;20459;-74
2021/09/29 12:42:11;;;;;;;10.47;0.80;;;20.00;57.80;;;;;;5117991;28;20499;-73
2021/09/29 12:44:51;;;;;;;2.10;0.60;;;18.60;53.10;;;;;;5118311;28;20854;-72
2021/09/29 12:47:24;;;;;;;1.90;0.77;;;16.90;58.10;;;;;;5117635;27;20466;-69
2021/09/29 12:49:51;;;;;;;2.50;0.77;;;15.70;62.90;;;;;;5118034;28;20435;-69
2021/09/29 12:52:28;;;;;;;2.80;0.90;;;14.70;68.00;;;;;;5117605;28;20474;-70
2021/09/29 12:54:56;;;;;;;0.87;0.70;;;14.10;73.80;;;;;;5117878;28;20458;-70
2021/09/29 12:57:27;;;;;;;2.40;0.50;;;13.70;75.90;;;;;;5117601;28;20956;-71
2021/09/29 12:59:54;;;;;;;0.80;0.47;;;13.30;78.40;;;;;;5116672;28;20892;-71
2021/09/29 13:02:21;;;;;;;2.20;0.87;;;13.20;80.70;;;;;;5117314;27;20893;-72
2021/09/29 13:04:47;;;;;;;1.67;0.80;;;13.20;81.90;;;;;;5117705;28;20447;-72
2021/09/29 13:07:14;;;;;;;1.13;0.63;;;13.10;81.80;;;;;;5116976;28;20566;-72
2021/09/29 13:09:41;;;;;;;1.27;0.40;;;13.10;81.80;;;;;;5117478;28;20449;-72
2021/09/29 13:12:08;;;;;;;1.30;1.07;;;13.10;82.60;;;;;;5117348;28;20478;-72
2021/09/29 13:14:36;;;;;;;3.37;0.80;;;13.10;82.20;;;;;;5117142;28;20447;-72
2021/09/29 13:17:04;;;;;;;1.90;0.70;;;13.20;81.00;;;;;;5117303;28;20546;-72
2021/09/29 13:19:33;;;;;;;0.93;0.73;;;13.40;82.40;;;;;;5117087;28;20936;-72
2021/09/29 13:22:02;;;;;;;3.23;0.70;;;13.50;81.20;;;;;;5117117;28;20489;-72
2021/09/29 13:24:37;;;;;;;2.10;0.90;;;13.60;78.60;;;;;;5117101;28;20454;-73
2021/09/29 13:38:33;;;;;;;2.47;1.20;;;17.70;68.40;;;;;;5074106;28;20455;-74
2021/09/29 13:41:00;;;;;;;1.30;0.80;;;19.00;57.30;;;;;;5073816;28;20421;-74
2021/09/29 13:43:27;;;;;;;2.70;1.53;;;19.60;56.60;;;;;;5092020;28;20450;-73
2021/09/29 13:45:55;;;;;;;3.07;0.70;;;20.40;54.00;;;;;;5116204;28;20434;-73
2021/09/29 13:48:21;;;;;;;2.17;1.60;;;20.80;52.80;;;;;;5116556;28;20462;-73
2021/09/29 13:50:48;;;;;;;2.63;2.00;;;21.30;52.00;;;;;;5116334;28;20435;-73
2021/09/29 13:53:15;;;;;;;4.20;1.40;;;21.70;51.00;;;;;;5116343;28;20443;-73
2021/09/29 13:55:44;;;;;;;1.20;0.93;;;21.80;49.90;;;;;;5116829;27;20450;-76
2021/09/29 13:58:16;;;;;;;3.60;1.30;;;21.80;49.00;;;;;;5116838;28;20466;-75
2021/09/29 14:00:52;;;;;;;2.03;1.00;;;22.20;48.90;;;;;;5116684;28;20482;-74
2021/09/29 14:30:44;;;;;;;0.97;0.70;;;20.10;50.70;;;;;;5116595;28;20777;-74
2021/09/29 14:33:19;;;;;;;3.30;1.20;;;19.30;51.50;;;;;;5116293;28;20489;-74
2021/09/29 14:35:47;;;;;;;2.70;1.00;;;18.60;53.70;;;;;;5116362;28;20473;-74
2021/09/29 14:38:14;;;;;;;1.80;1.00;;;18.10;55.70;;;;;;5116288;28;20463;-74
2021/09/29 14:40:40;;;;;;;1.37;0.90;;;17.60;56.90;;;;;;5116073;28;20442;-74
2021/09/29 14:43:07;;;;;;;4.40;0.97;;;17.30;58.80;;;;;;5116197;28;20454;-74
2021/09/29 14:45:35;;;;;;;8.73;0.90;;;17.10;58.80;;;;;;5116152;28;20438;-74
2021/09/29 14:48:02;;;;;;;4.03;1.10;;;17.10;58.90;;;;;;5115624;28;21044;-74
2021/09/29 14:50:29;;;;;;;1.73;0.70;;;17.10;57.90;;;;;;5116194;28;20900;-74
2021/09/29 14:52:58;;;;;;;2.30;0.70;;;17.40;56.70;;;;;;5115448;28;20471;-74
2021/09/29 14:55:28;;;;;;;1.07;0.70;;;18.30;55.50;;;;;;5116038;28;20442;-74
2021/09/29 14:57:54;;;;;;;1.80;0.70;;;18.90;52.60;;;;;;5116159;28;20466;-74
2021/09/29 15:00:21;;;;;;;1.73;0.77;;;19.50;51.40;;;;;;5116006;28;20427;-74
2021/09/29 15:02:48;;;;;;;2.30;1.30;;;19.80;49.70;;;;;;5116632;28;20446;-74
2021/09/29 15:05:15;;;;;;;2.57;0.67;;;19.80;50.00;;;;;;5116058;28;20416;-75
2021/09/29 15:07:41;;;;;;;2.50;0.57;;;19.40;48.60;;;;;;5115897;28;20474;-75